Aérodrome :
LOGIN :

S'inscrire | Disclaimer

   EN    FR    IT 

 










Légende :    VFR   VFR Marginal   IFR   IFR Intensif   IFR Très Intensif
Visi : 
Plafond : 
>= 8 km
>= 3000ft
5 à 8 km
1000 à 3000 ft
1500m à 5 km
500 à 1000 ft
800 à 1500m
200 à 500 ft
< 800m
< 200 ft
Symboles :   Orages  Brouillard  Fortes neiges  Fortes précipitations  Vent > 20 kt
SIGMETs :   Divers  Orages  Givrage  Turbulence  Onde Orograph.  Cendres Volcan.






- Altitude de l'aérodrome : 49 ft
- Code IATA : GLZ


EHGR - Gilze-Rijen Airbase

DERNIER METAR :
  • 290355Z AUTO 21008KT 190V250 9999 FEW006 SCT008 BKN010 15/14 Q1009 GRN

METARs EXPIRÉS :
  • 290343Z AUTO 21008KT 180V250 9999 FEW009 BKN015 OVC020 15/14 Q1009 WHT
  • 290325Z AUTO 21008KT 150V250 9999 FEW007 BKN013 OVC015 15/14 Q1009 GRN
  • 290304Z AUTO 21009KT 170V250 6000 BR FEW006 SCT010 BKN012 15/14 Q1009 GRN
  • 290255Z AUTO 21009KT 160V260 8000 -DZ FEW006 SCT011 BKN020 15/14 Q1009 REDZ GRN
  • 290244Z AUTO 21009KT 180V250 4200 +DZRA FEW005 SCT006 BKN009 15/14 Q1009 YLO
  • 290225Z AUTO 21009KT 180V260 3300 +DZRA FEW005 SCT009 BKN010 FEW015CB 15/14 Q1009 RERA REDZ YLO
  • 290208Z AUTO 20009KT 170V250 8000 SHRA FEW004 SCT006 BKN009 FEW015CB 15/14 Q1009 YLO
  • 290155Z AUTO 21008KT 180V250 3400 SHRA +DZ FEW004 SCT006 BKN014 FEW015CB 15/14 Q1010 YLO
  • 290142Z AUTO 21008KT 170V270 4100 DZ BKN019 BKN022 OVC041 15/14 Q1010 GRN
  • 290134Z AUTO 21008KT 170V270 4500 DZ FEW009 BKN021 BKN034 15/14 Q1010 GRN
  • 290103Z AUTO 24010KT 210V270 3600 +DZ FEW007 SCT018 BKN027 14/14 Q1010 YLO
  • 290042Z AUTO 22006KT 180V270 3900 RA FEW003 BKN012 OVC014 14/14 Q1011 GRN
  • 290033Z AUTO 22005KT 180V260 4300 RA FEW003 SCT006 BKN013 14/14 Q1011 YLO
  • 290003Z AUTO 20006KT 160V230 3400 -SHRA FEW004 SCT005 BKN015CB 14/14 Q1011 YLO
  • 282355Z AUTO 20007KT 160V240 4400 RA FEW005 BKN015CB BKN029 14/14 Q1011 GRN
  • 282345Z AUTO 20007KT 170V250 3700 SHRA FEW006 SCT008 BKN015CB 15/14 Q1011 GRN

Prévision TAF périmée.



MET'MAP, la Météo Aéronautique d'un coup d'oeil ! - Copyright ORBIFLY Décembre 2007 - Disclaimer

ORBIFLY MET'MAP TEAM :

Programmation & Développement : Alexandra Zaïnal
Sur une idée originale de : Baudouin d'Aumeries
Soutien technique & logistique : Manuel Goepfert
Assistance : Marc-Olivier Méhu




SOURCES & CREDITS :

   NOAA